createdAt,value
2019-05-13T00:00:23.582Z,66.46
2019-05-13T00:02:50.831Z,66.44
2019-05-13T00:05:18.245Z,66.24
2019-05-13T00:07:45.427Z,66.11
2019-05-13T00:10:14.601Z,66.07
2019-05-13T00:12:43.915Z,65.90
2019-05-13T00:15:11.236Z,65.79
2019-05-13T00:17:38.596Z,66.33
2019-05-13T00:20:05.905Z,66.18
2019-05-13T00:22:34.007Z,65.65
2019-05-13T00:25:03.847Z,65.97
2019-05-13T00:27:31.087Z,65.68
2019-05-13T00:30:00.140Z,65.27
2019-05-13T00:32:27.260Z,65.26
2019-05-13T00:34:54.557Z,65.20
2019-05-13T00:37:21.794Z,65.33
2019-05-13T00:39:49.008Z,65.46
2019-05-13T00:42:16.189Z,65.62
2019-05-13T00:44:44.339Z,65.57
2019-05-13T00:47:13.271Z,65.31
2019-05-13T00:49:40.470Z,64.69
2019-05-13T00:52:07.732Z,64.12
2019-05-13T00:54:34.953Z,64.58
2019-05-13T00:57:04.141Z,64.66
2019-05-13T00:59:33.924Z,64.41
2019-05-13T01:02:03.385Z,64.61
2019-05-13T01:04:30.133Z,64.75
2019-05-13T01:06:57.351Z,64.87
2019-05-13T01:09:24.495Z,64.96
2019-05-13T01:11:53.723Z,65.05
2019-05-13T01:14:20.723Z,64.92
2019-05-13T01:16:47.878Z,64.38
2019-05-13T01:19:15.063Z,64.36
2019-05-13T01:21:43.557Z,64.32
2019-05-13T01:24:10.814Z,64.25
2019-05-13T01:26:38.013Z,64.30
2019-05-13T01:29:05.193Z,64.00
2019-05-13T01:31:34.395Z,64.16
2019-05-13T01:34:03.958Z,64.47
2019-05-13T01:36:30.839Z,64.03
2019-05-13T01:38:58.019Z,64.11
2019-05-13T01:41:25.166Z,64.69
2019-05-13T01:43:54.413Z,64.57
2019-05-13T01:46:23.957Z,63.95
2019-05-13T01:48:50.565Z,63.86
2019-05-13T01:51:17.889Z,63.97
2019-05-13T01:53:45.407Z,63.68
2019-05-13T01:56:14.140Z,63.43
2019-05-13T01:58:41.597Z,63.41
2019-05-13T02:01:08.743Z,63.73
2019-05-13T02:03:35.913Z,63.88
2019-05-13T02:06:03.889Z,63.46
2019-05-13T02:08:33.466Z,63.50
2019-05-13T02:11:00.724Z,63.28
2019-05-13T02:13:27.913Z,63.06
2019-05-13T02:15:55.433Z,63.14
2019-05-13T02:18:24.390Z,62.98
2019-05-13T02:20:54.892Z,62.75
2019-05-13T02:23:23.241Z,62.76
2019-05-13T02:25:50.430Z,63.00
2019-05-13T02:28:17.643Z,63.07
2019-05-13T02:30:45.710Z,63.14
2019-05-13T02:33:13.546Z,63.45
2019-05-13T02:35:43.399Z,63.81
2019-05-13T02:38:21.272Z,63.15
2019-05-13T02:40:42.882Z,63.51
2019-05-13T02:43:08.869Z,63.20
2019-05-13T02:45:36.214Z,63.11
2019-05-13T02:48:03.711Z,63.65
2019-05-13T02:50:33.794Z,64.47
2019-05-13T02:53:02.414Z,64.98
2019-05-13T02:55:29.162Z,64.86
2019-05-13T02:57:56.385Z,64.87
2019-05-13T03:00:23.784Z,65.02
2019-05-13T03:02:52.475Z,64.52
2019-05-13T03:05:21.992Z,64.41
2019-05-13T03:07:52.966Z,64.17
2019-05-13T03:10:18.326Z,64.00
2019-05-13T03:12:45.568Z,64.22
2019-05-13T03:15:13.538Z,64.97
2019-05-13T03:18:03.189Z,65.16
2019-05-13T03:20:33.032Z,64.70
2019-05-13T03:22:58.703Z,64.78
2019-05-13T03:25:25.923Z,64.76
2019-05-13T03:27:54.333Z,64.22
2019-05-13T03:30:25.198Z,64.49
2019-05-13T03:32:59.791Z,64.47
2019-05-13T03:35:25.735Z,63.43
2019-05-13T03:37:52.633Z,63.76
2019-05-13T03:40:18.830Z,64.54
2019-05-13T03:42:47.724Z,64.70
2019-05-13T03:45:14.931Z,64.48
2019-05-13T03:47:44.413Z,64.16
2019-05-13T03:50:12.987Z,64.57
2019-05-13T03:52:43.360Z,64.77
2019-05-13T03:55:13.074Z,65.08
2019-05-13T03:57:42.598Z,64.99
2019-05-13T04:00:12.903Z,64.62
2019-05-13T04:02:38.732Z,64.66
2019-05-13T04:05:05.889Z,64.61
2019-05-13T04:07:33.060Z,64.71
2019-05-13T04:10:03.346Z,64.88
2019-05-13T04:12:33.096Z,64.60
2019-05-13T04:14:58.700Z,64.12
2019-05-13T04:17:25.958Z,64.31
2019-05-13T04:19:53.259Z,63.98
2019-05-13T04:22:23.032Z,63.72
2019-05-13T04:24:52.756Z,63.30
2019-05-13T04:27:18.944Z,63.25
2019-05-13T04:29:46.235Z,62.50
2019-05-13T04:32:14.303Z,62.32
2019-05-13T04:34:42.470Z,61.95
2019-05-13T04:37:12.930Z,61.53
2019-05-13T04:39:47.685Z,61.70
2019-05-13T04:42:08.083Z,61.07
2019-05-13T04:44:35.262Z,60.85
2019-05-13T04:47:03.862Z,58.88
2019-05-13T04:49:32.546Z,48.38
2019-05-13T04:52:03.341Z,40.97
2019-05-13T04:54:32.759Z,35.27
2019-05-13T04:56:58.488Z,33.86
2019-05-13T04:59:25.646Z,30.81
2019-05-13T05:02:46.135Z,27.63
2019-05-13T05:05:22.566Z,27.02
2019-05-13T05:08:06.323Z,25.06
2019-05-13T05:11:02.612Z,23.70
2019-05-13T05:13:56.663Z,22.77
2019-05-13T05:16:44.077Z,22.45
2019-05-13T05:19:52.237Z,21.08
2019-05-13T05:22:51.498Z,20.35
2019-05-13T05:26:03.420Z,20.23
2019-05-13T05:28:46.092Z,19.56
2019-05-13T05:31:46.786Z,17.47
2019-05-13T05:34:51.915Z,16.41
2019-05-13T05:38:07.308Z,15.94
2019-05-13T05:40:36.517Z,18.06
2019-05-13T05:43:04.749Z,17.33
2019-05-13T05:45:34.600Z,16.83
2019-05-13T05:48:03.776Z,18.60
2019-05-13T05:50:32.278Z,18.38
2019-05-13T05:53:01.893Z,18.12
2019-05-13T05:55:31.816Z,16.92
2019-05-13T05:58:01.696Z,16.81
2019-05-13T06:00:32.337Z,15.52
2019-05-13T06:03:02.546Z,15.00
2019-05-13T06:05:31.862Z,15.20
2019-05-13T06:07:59.200Z,14.49
2019-05-13T06:10:26.360Z,14.25
2019-05-13T06:12:53.912Z,15.03
2019-05-13T06:15:22.546Z,14.65
2019-05-13T06:17:51.816Z,13.27
2019-05-13T06:20:20.991Z,13.91
2019-05-13T06:22:48.002Z,13.63
2019-05-13T06:25:15.360Z,12.69
2019-05-13T06:27:42.668Z,12.58
2019-05-13T06:30:12.648Z,11.84
2019-05-13T06:32:41.661Z,11.01
2019-05-13T06:35:08.621Z,12.42
2019-05-13T06:37:36.035Z,12.17
2019-05-13T06:40:03.428Z,13.26
2019-05-13T06:42:32.425Z,14.78
2019-05-13T06:45:01.894Z,14.63
2019-05-13T06:47:28.911Z,14.71
2019-05-13T06:49:56.107Z,14.82
2019-05-13T06:52:23.322Z,13.72
2019-05-13T06:54:52.081Z,12.40
2019-05-13T06:57:21.817Z,11.12
2019-05-13T06:59:48.738Z,11.91
2019-05-13T07:02:15.903Z,13.09
2019-05-13T07:04:43.118Z,12.09
2019-05-13T07:07:16.124Z,12.16
2019-05-13T07:09:39.472Z,11.67
2019-05-13T07:12:06.662Z,11.68
2019-05-13T07:14:33.773Z,11.38
2019-05-13T07:17:01.928Z,11.08
2019-05-13T07:19:31.935Z,11.70
2019-05-13T07:21:58.756Z,11.94
2019-05-13T07:24:25.971Z,10.87
2019-05-13T07:26:53.376Z,10.55
2019-05-13T07:29:23.888Z,11.09
2019-05-13T07:31:52.048Z,11.10
2019-05-13T07:34:18.763Z,11.01
2019-05-13T07:36:47.069Z,11.00
2019-05-13T07:39:14.256Z,11.07
2019-05-13T07:41:43.186Z,11.93
2019-05-13T07:44:11.832Z,11.94
2019-05-13T07:46:39.249Z,10.83
2019-05-13T07:49:06.498Z,10.93
2019-05-13T07:51:33.716Z,9.92
2019-05-13T07:54:02.294Z,9.23
2019-05-13T07:56:32.228Z,8.76
2019-05-13T07:59:01.503Z,9.30
2019-05-13T08:01:28.224Z,9.52
2019-05-13T08:03:55.732Z,9.73
2019-05-13T08:06:22.802Z,8.82
2019-05-13T08:08:52.256Z,8.61
2019-05-13T08:11:19.164Z,8.46
2019-05-13T08:13:46.385Z,9.37
2019-05-13T08:16:13.571Z,9.61
2019-05-13T08:18:43.688Z,8.76
2019-05-13T08:21:12.247Z,7.71
2019-05-13T08:23:41.563Z,6.54
2019-05-13T08:26:08.195Z,7.40
2019-05-13T08:28:35.396Z,7.03
2019-05-13T08:31:02.580Z,6.95
2019-05-13T08:33:32.063Z,7.74
2019-05-13T08:36:01.438Z,7.10
2019-05-13T08:38:28.445Z,7.07
2019-05-13T08:40:55.631Z,8.28
2019-05-13T08:43:22.837Z,10.18
2019-05-13T08:45:51.689Z,10.82
2019-05-13T08:48:22.011Z,10.77
2019-05-13T08:50:48.042Z,8.71
2019-05-13T08:53:15.118Z,7.84
2019-05-13T08:55:42.997Z,6.79
2019-05-13T08:58:12.566Z,6.27
2019-05-13T09:00:52.790Z,6.77
2019-05-13T09:03:21.514Z,6.47
2019-05-13T09:05:51.977Z,6.10
2019-05-13T09:08:22.343Z,6.15
2019-05-13T09:10:51.909Z,6.55
2019-05-13T09:13:18.579Z,6.82
2019-05-13T09:15:45.828Z,6.75
2019-05-13T09:18:13.090Z,7.41
2019-05-13T09:20:41.612Z,7.76
2019-05-13T09:23:11.288Z,7.67
2019-05-13T09:25:38.021Z,7.15
2019-05-13T09:28:05.205Z,6.62
2019-05-13T09:30:32.625Z,6.46
2019-05-13T09:33:01.914Z,7.19
2019-05-13T09:35:28.724Z,8.55
2019-05-13T09:37:56.144Z,8.78
2019-05-13T09:40:23.219Z,8.57
2019-05-13T09:45:21.570Z,10.36
2019-05-13T09:47:48.591Z,10.83
2019-05-13T09:50:28.399Z,11.16
2019-05-13T09:52:45.532Z,11.63
2019-05-13T09:55:25.317Z,12.52
2019-05-13T09:57:41.995Z,12.56
2019-05-13T10:00:12.115Z,14.38
2019-05-13T10:02:38.874Z,16.32
2019-05-13T10:05:06.199Z,18.39
2019-05-13T10:07:33.407Z,21.87
2019-05-13T10:10:01.883Z,23.66
2019-05-13T10:12:31.901Z,24.68
2019-05-13T10:14:58.875Z,25.30
2019-05-13T10:17:26.028Z,25.27
2019-05-13T10:19:53.250Z,25.58
2019-05-13T10:22:21.877Z,26.24
2019-05-13T10:24:51.447Z,27.12
2019-05-13T10:27:19.295Z,27.18
2019-05-13T10:29:47.155Z,27.01
2019-05-13T10:32:14.434Z,26.01
2019-05-13T10:34:42.722Z,25.97
2019-05-13T10:37:11.319Z,26.40
2019-05-13T10:39:38.727Z,26.91
2019-05-13T10:42:05.977Z,26.01
2019-05-13T10:44:33.265Z,26.43
2019-05-13T10:47:02.470Z,25.97
2019-05-13T10:49:32.745Z,26.00
2019-05-13T10:51:58.755Z,26.74
2019-05-13T10:54:26.195Z,26.67
2019-05-13T10:56:58.929Z,26.28
2019-05-13T10:59:23.145Z,26.17
2019-05-13T11:01:50.428Z,26.55
2019-05-13T11:04:17.588Z,24.97
2019-05-13T11:06:45.010Z,24.35
2019-05-13T11:09:13.223Z,24.49
2019-05-13T11:11:41.423Z,23.81
2019-05-13T11:14:12.859Z,23.13
2019-05-13T11:16:37.682Z,23.41
2019-05-13T11:19:04.858Z,23.30
2019-05-13T11:21:32.374Z,22.21
2019-05-13T11:24:03.078Z,23.02
2019-05-13T11:26:29.022Z,22.25
2019-05-13T11:28:56.278Z,23.59
2019-05-13T11:31:23.513Z,23.93
2019-05-13T11:33:52.026Z,23.75
2019-05-13T11:36:19.597Z,23.43
2019-05-13T11:38:46.754Z,23.93
2019-05-13T11:41:13.945Z,23.60
2019-05-13T11:43:41.543Z,23.96
2019-05-13T11:46:09.074Z,23.72
2019-05-13T11:48:36.488Z,23.53
2019-05-13T11:51:04.449Z,23.97
2019-05-13T11:53:34.495Z,23.94
2019-05-13T11:56:03.635Z,23.39
2019-05-13T11:58:32.480Z,23.81
2019-05-13T12:01:02.661Z,22.76
2019-05-13T12:03:32.171Z,22.47
2019-05-13T12:05:58.308Z,22.68
2019-05-13T12:08:25.469Z,22.66
2019-05-13T12:10:52.770Z,23.07
2019-05-13T12:13:22.661Z,23.39
2019-05-13T12:15:50.055Z,22.97
2019-05-13T12:18:18.294Z,22.83
2019-05-13T12:20:45.767Z,22.43
2019-05-13T12:23:13.218Z,21.59
2019-05-13T12:25:43.650Z,22.46
2019-05-13T12:28:11.380Z,21.51
2019-05-13T12:30:38.633Z,22.08
2019-05-13T12:33:07.711Z,21.57
2019-05-13T12:35:34.949Z,21.51
2019-05-13T12:38:02.007Z,21.35
2019-05-13T12:40:33.455Z,21.34
2019-05-13T12:42:58.243Z,21.81
2019-05-13T12:45:25.449Z,21.23
2019-05-13T12:47:53.196Z,21.33
2019-05-13T12:50:23.511Z,21.08
2019-05-13T12:52:51.499Z,21.36
2019-05-13T12:55:18.876Z,21.81
2019-05-13T12:57:46.144Z,21.60
2019-05-13T13:00:13.690Z,22.12
2019-05-13T13:02:48.685Z,21.27
2019-05-13T13:05:19.654Z,21.07
2019-05-13T13:07:42.512Z,20.96
2019-05-13T13:10:14.267Z,20.31
2019-05-13T13:12:41.926Z,20.77
2019-05-13T13:15:33.018Z,20.52
2019-05-13T13:17:37.348Z,20.86
2019-05-13T13:20:09.410Z,20.56
2019-05-13T13:22:34.492Z,20.87
2019-05-13T13:25:04.847Z,20.50
2019-05-13T13:28:01.942Z,21.00
2019-05-13T13:30:04.428Z,20.37
2019-05-13T13:32:32.183Z,21.00
2019-05-13T13:34:58.206Z,21.61
2019-05-13T13:37:25.581Z,21.92
2019-05-13T13:39:55.211Z,22.05
2019-05-13T13:42:21.925Z,21.32
2019-05-13T13:44:53.359Z,22.29
2019-05-13T13:47:18.557Z,22.49
2019-05-13T13:49:45.853Z,22.74
2019-05-13T13:52:16.070Z,23.09
2019-05-13T13:54:44.293Z,23.21
2019-05-13T13:57:13.486Z,22.75
2019-05-13T14:00:14.339Z,23.05
2019-05-13T14:02:13.216Z,22.71
2019-05-13T14:04:38.572Z,23.09
2019-05-13T14:07:00.737Z,9.70
2019-05-13T14:07:22.387Z,23.34
2019-05-13T14:09:34.942Z,23.77
2019-05-13T14:12:02.275Z,24.31
2019-05-13T14:14:31.816Z,23.86
2019-05-13T14:16:58.488Z,23.99
2019-05-13T14:19:25.689Z,23.91
2019-05-13T14:21:52.811Z,24.50
2019-05-13T14:24:21.635Z,24.26
2019-05-13T14:26:48.990Z,24.04
2019-05-13T14:29:16.199Z,24.07
2019-05-13T14:31:43.555Z,24.36
2019-05-13T14:34:11.442Z,24.34
2019-05-13T14:36:39.221Z,23.89
2019-05-13T14:39:06.481Z,24.65
2019-05-13T14:41:33.702Z,23.41
2019-05-13T14:44:03.750Z,24.11
2019-05-13T14:46:44.025Z,24.63
2019-05-13T14:49:01.286Z,24.56
2019-05-13T14:51:28.477Z,25.06
2019-05-13T14:53:55.677Z,25.44
2019-05-13T14:56:22.889Z,24.70
2019-05-13T14:58:52.025Z,24.83
2019-05-13T15:01:21.822Z,24.43
2019-05-13T15:03:48.221Z,25.26
2019-05-13T15:06:15.712Z,25.40
2019-05-13T15:08:42.965Z,26.05
2019-05-13T15:11:12.357Z,26.25
2019-05-13T15:13:39.328Z,26.46
2019-05-13T15:16:06.504Z,26.33
2019-05-13T15:18:33.746Z,26.13
2019-05-13T15:21:01.704Z,26.59
2019-05-13T15:23:31.469Z,26.63
2019-05-13T15:25:58.272Z,26.46
2019-05-13T15:28:25.708Z,26.96
2019-05-13T15:30:52.905Z,27.28
2019-05-13T15:33:21.552Z,26.45
2019-05-13T15:35:48.904Z,26.24
2019-05-13T15:38:16.084Z,25.70
2019-05-13T15:40:43.252Z,26.04
2019-05-13T15:43:11.700Z,26.14
2019-05-13T15:45:38.865Z,25.86
2019-05-13T15:48:05.960Z,25.82
2019-05-13T15:50:33.060Z,25.64
2019-05-13T15:53:02.848Z,25.70
2019-05-13T15:55:29.653Z,25.77
2019-05-13T15:57:56.836Z,25.20
2019-05-13T16:00:24.005Z,25.21
2019-05-13T16:02:52.240Z,25.71
2019-05-13T16:05:19.571Z,25.35
2019-05-13T16:07:47.042Z,25.52
2019-05-13T16:10:14.644Z,25.75
2019-05-13T16:12:41.848Z,25.30
2019-05-13T16:15:13.107Z,24.88
2019-05-13T16:17:42.259Z,25.10
2019-05-13T16:20:08.514Z,25.18
2019-05-13T16:22:35.729Z,25.78
2019-05-13T16:25:03.068Z,25.47
2019-05-13T16:27:31.167Z,26.03
2019-05-13T16:29:58.377Z,26.27
2019-05-13T16:32:25.465Z,26.45
2019-05-13T16:34:52.761Z,26.54
2019-05-13T16:37:21.998Z,26.95
2019-05-13T16:39:52.042Z,27.19
2019-05-13T16:42:22.265Z,27.47
2019-05-13T16:44:48.679Z,27.39
2019-05-13T16:47:16.323Z,27.61
2019-05-13T16:49:43.598Z,27.66
2019-05-13T16:52:11.748Z,27.67
2019-05-13T16:54:42.140Z,27.64
2019-05-13T16:57:08.260Z,27.32
2019-05-13T16:59:35.385Z,27.30
2019-05-13T17:02:02.634Z,27.46
2019-05-13T17:04:31.926Z,27.98
2019-05-13T17:07:01.334Z,28.02
2019-05-13T17:09:28.277Z,27.67
2019-05-13T17:11:55.481Z,27.79
2019-05-13T17:14:22.565Z,27.87
2019-05-13T17:16:51.740Z,28.29
2019-05-13T17:19:18.835Z,28.86
2019-05-13T17:21:46.293Z,28.92
2019-05-13T17:24:13.476Z,28.70
2019-05-13T17:26:41.778Z,27.93
2019-05-13T17:29:09.147Z,28.37
2019-05-13T17:31:36.405Z,28.17
2019-05-13T17:34:03.565Z,28.87
2019-05-13T17:36:32.502Z,28.57
2019-05-13T17:39:01.837Z,28.60
2019-05-13T17:41:29.311Z,28.61
2019-05-13T17:43:56.523Z,28.93
2019-05-13T17:46:23.775Z,28.94
2019-05-13T17:48:52.080Z,29.45
2019-05-13T17:51:19.357Z,29.58
2019-05-13T17:53:46.555Z,29.10
2019-05-13T17:56:13.609Z,29.22
2019-05-13T17:58:42.045Z,29.30
2019-05-13T18:01:09.272Z,29.71
2019-05-13T18:03:36.489Z,30.04
2019-05-13T18:06:03.704Z,29.86
2019-05-13T18:08:32.062Z,30.35
2019-05-13T18:11:01.952Z,30.08
2019-05-13T18:13:29.017Z,30.66
2019-05-13T18:15:56.249Z,30.89
2019-05-13T18:18:38.641Z,30.70
2019-05-13T18:20:52.607Z,30.55
2019-05-13T18:23:20.113Z,30.82
2019-05-13T18:25:47.634Z,30.85
2019-05-13T18:28:27.633Z,31.26
2019-05-13T18:30:44.030Z,31.60
2019-05-13T18:33:11.805Z,31.02
2019-05-13T18:35:41.703Z,31.01
2019-05-13T18:38:08.434Z,31.62
2019-05-13T18:40:35.620Z,31.26
2019-05-13T18:43:02.709Z,31.94
2019-05-13T18:45:29.965Z,32.58
2019-05-13T18:47:57.089Z,32.51
2019-05-13T18:50:24.376Z,32.35
2019-05-13T18:52:52.475Z,32.43
2019-05-13T18:55:20.085Z,32.70
2019-05-13T18:57:47.252Z,32.79
2019-05-13T19:00:14.492Z,33.05
2019-05-13T19:02:41.680Z,33.43
2019-05-13T19:05:11.712Z,33.64
2019-05-13T19:07:38.995Z,34.09
2019-05-13T19:10:06.689Z,34.32
2019-05-13T19:12:33.929Z,34.23
2019-05-13T19:15:02.426Z,34.73
2019-05-13T19:17:32.062Z,34.54
2019-05-13T19:19:59.180Z,34.82
2019-05-13T19:22:26.494Z,35.14
2019-05-13T19:24:53.618Z,35.68
2019-05-13T19:27:21.598Z,35.90
2019-05-13T19:29:48.971Z,36.09
2019-05-13T19:32:16.164Z,36.02
2019-05-13T19:34:43.355Z,36.64
2019-05-13T19:37:11.581Z,36.74
2019-05-13T19:39:39.006Z,36.78
2019-05-13T19:42:06.193Z,36.86
2019-05-13T19:44:33.454Z,37.41
2019-05-13T19:47:01.916Z,37.43
2019-05-13T19:49:36.673Z,37.44
2019-05-13T19:52:01.619Z,37.89
2019-05-13T19:54:28.293Z,38.03
2019-05-13T19:56:55.478Z,38.23
2019-05-13T19:59:23.282Z,38.40
2019-05-13T20:01:51.630Z,38.58
2019-05-13T20:04:21.693Z,38.79
2019-05-13T20:06:48.275Z,38.75
2019-05-13T20:09:15.854Z,39.15
2019-05-13T20:11:42.992Z,39.37
2019-05-13T20:14:12.160Z,38.66
2019-05-13T20:16:41.544Z,38.99
2019-05-13T20:19:08.336Z,38.91
2019-05-13T20:21:36.010Z,39.29
2019-05-13T20:24:03.197Z,39.52
2019-05-13T20:26:32.240Z,40.12
2019-05-13T20:29:01.565Z,40.37
2019-05-13T20:31:29.107Z,40.24
2019-05-13T20:33:56.538Z,40.69
2019-05-13T20:36:23.770Z,40.74
2019-05-13T20:38:51.701Z,41.04
2019-05-13T20:41:19.210Z,41.24
2019-05-13T20:43:46.758Z,41.61
2019-05-13T20:46:13.923Z,41.75
2019-05-13T20:48:41.274Z,41.54
2019-05-13T20:51:08.472Z,41.74
2019-05-13T20:53:35.696Z,41.89
2019-05-13T20:56:02.919Z,41.83
2019-05-13T20:58:31.836Z,42.18
2019-05-13T21:00:59.248Z,42.16
2019-05-13T21:03:26.416Z,42.25
2019-05-13T21:05:53.539Z,42.46
2019-05-13T21:08:21.752Z,42.46
2019-05-13T21:10:51.575Z,42.73
2019-05-13T21:13:18.178Z,42.45
2019-05-13T21:15:45.696Z,42.59
2019-05-13T21:18:12.839Z,42.74
2019-05-13T21:20:40.962Z,42.67
2019-05-13T21:23:08.202Z,43.31
2019-05-13T21:25:36.742Z,43.45
2019-05-13T21:28:04.348Z,43.41
2019-05-13T21:30:31.582Z,43.48
2019-05-13T21:32:58.662Z,43.41
2019-05-13T21:35:25.740Z,43.73
2019-05-13T21:37:52.916Z,43.63
2019-05-13T21:40:21.683Z,43.53
2019-05-13T21:42:49.648Z,43.54
2019-05-13T21:45:16.738Z,43.49
2019-05-13T21:47:43.824Z,43.28
2019-05-13T21:50:11.660Z,43.40
2019-05-13T21:52:41.547Z,43.25
2019-05-13T21:55:08.432Z,42.92
2019-05-13T21:57:35.684Z,43.14
2019-05-13T22:00:06.791Z,43.15
2019-05-13T22:02:35.411Z,42.99
2019-05-13T22:05:02.832Z,43.20
2019-05-13T22:07:31.542Z,43.13
2019-05-13T22:09:58.805Z,43.04
2019-05-13T22:12:26.069Z,43.14
2019-05-13T22:14:53.232Z,43.09
2019-05-13T22:17:20.430Z,43.33
2019-05-13T22:19:47.914Z,43.73
2019-05-13T22:22:14.977Z,43.75
2019-05-13T22:24:42.238Z,43.68
2019-05-13T22:27:10.971Z,43.51
2019-05-13T22:29:38.491Z,43.42
2019-05-13T22:32:05.767Z,43.62
2019-05-13T22:34:33.216Z,43.83
2019-05-13T22:37:02.344Z,43.84
2019-05-13T22:39:34.471Z,43.64
2019-05-13T22:42:01.109Z,43.77
2019-05-13T22:44:28.541Z,44.18
2019-05-13T22:46:55.742Z,43.85
2019-05-13T22:49:22.992Z,43.83
2019-05-13T22:51:51.592Z,43.89
2019-05-13T22:54:21.098Z,44.01
2019-05-13T22:56:48.324Z,44.07
2019-05-13T22:59:15.764Z,44.33
2019-05-13T23:01:42.924Z,43.93
2019-05-13T23:04:11.473Z,44.14
2019-05-13T23:06:38.817Z,43.94
2019-05-13T23:09:05.858Z,44.05
2019-05-13T23:11:33.079Z,44.01
2019-05-13T23:14:09.589Z,43.88
2019-05-13T23:16:31.477Z,44.13
2019-05-13T23:18:58.630Z,44.26
2019-05-13T23:21:25.837Z,44.37
2019-05-13T23:23:52.990Z,44.28
2019-05-13T23:26:21.054Z,44.96
2019-05-13T23:28:48.620Z,44.84
2019-05-13T23:31:15.794Z,44.88
2019-05-13T23:33:42.973Z,45.04
2019-05-13T23:36:12.001Z,45.20
2019-05-13T23:38:41.385Z,45.54
2019-05-13T23:41:08.403Z,44.89
2019-05-13T23:43:35.606Z,45.12
2019-05-13T23:46:02.779Z,45.41
2019-05-13T23:48:31.991Z,46.15
2019-05-13T23:51:01.202Z,46.25
2019-05-13T23:53:28.119Z,46.38
2019-05-13T23:55:55.211Z,46.31
2019-05-13T23:58:22.435Z,46.48
